Time;durP1;ratioP1;P1;durP2;ratioP2;P2;SDS_P1;SDS_P2;PMS_P1;PMS_P2;Temp;Humidity;BMP_temperature;BMP_pressure;BME280_temperature;BME280_humidity;BME280_pressure;Samples;Min_cycle;Max_cycle;Signal;HPM_P1;HPM_P2
2023/10/23 00:02:08;;;;;;;40.42;19.92;;;;;;;;;;6247765;28;20369;-62
2023/10/23 00:05:09;;;;;;;51.85;25.35;;;;;;;;;;6255889;28;20069;-63
2023/10/23 00:08:09;;;;;;;52.17;24.45;;;;;;;;;;6243566;28;20091;-62
2023/10/23 00:11:21;;;;;;;46.35;22.02;;;;;;;;;;6243614;28;20507;-62
2023/10/23 00:14:21;;;;;;;50.60;24.85;;;;;;;;;;6252055;28;20219;-61
2023/10/23 00:17:22;;;;;;;53.90;24.33;;;;;;;;;;6249005;28;20060;-62
2023/10/23 00:20:22;;;;;;;44.85;21.27;;;;;;;;;;6264443;28;20051;-63
2023/10/23 00:23:23;;;;;;;44.25;20.63;;;;;;;;;;6240812;28;20045;-62
2023/10/23 00:26:24;;;;;;;44.80;19.85;;;;;;;;;;6243514;28;20083;-63
2023/10/23 00:29:25;;;;;;;41.63;18.87;;;;;;;;;;6243080;28;20050;-63
2023/10/23 00:32:25;;;;;;;46.05;20.55;;;;;;;;;;6242247;28;20661;-62
2023/10/23 00:35:26;;;;;;;43.55;20.02;;;;;;;;;;6254382;28;20109;-62
2023/10/23 00:38:28;;;;;;;48.17;23.35;;;;;;;;;;6242008;28;20038;-62
2023/10/23 00:41:29;;;;;;;53.63;25.95;;;;;;;;;;6240534;28;20098;-62
2023/10/23 00:44:30;;;;;;;79.43;40.22;;;;;;;;;;6244962;28;20451;-62
2023/10/23 00:47:30;;;;;;;49.33;24.58;;;;;;;;;;6241729;28;20480;-61
2023/10/23 00:50:31;;;;;;;54.95;25.33;;;;;;;;;;6241418;28;20055;-62
2023/10/23 00:53:35;;;;;;;59.63;27.67;;;;;;;;;;6241820;28;20489;-62
2023/10/23 00:56:35;;;;;;;50.22;23.02;;;;;;;;;;6240216;28;20493;-62
2023/10/23 00:59:36;;;;;;;50.13;23.08;;;;;;;;;;6242591;28;20587;-62
2023/10/23 01:02:37;;;;;;;52.92;22.90;;;;;;;;;;6241765;28;20053;-62
2023/10/23 01:05:38;;;;;;;54.80;26.77;;;;;;;;;;6243484;28;20050;-62
2023/10/23 01:08:38;;;;;;;57.53;25.58;;;;;;;;;;6244419;28;20052;-62
2023/10/23 01:11:39;;;;;;;44.38;21.02;;;;;;;;;;6245375;28;20045;-61
2023/10/23 01:14:40;;;;;;;41.50;20.00;;;;;;;;;;6244487;28;20049;-62
2023/10/23 01:17:40;;;;;;;45.85;21.08;;;;;;;;;;6244718;28;20119;-62
2023/10/23 01:20:41;;;;;;;42.35;19.98;;;;;;;;;;6245591;28;20107;-61
2023/10/23 01:23:46;;;;;;;50.83;23.83;;;;;;;;;;6245868;28;20156;-61
2023/10/23 01:26:46;;;;;;;46.00;19.42;;;;;;;;;;6246402;28;20041;-62
2023/10/23 01:29:47;;;;;;;43.05;19.88;;;;;;;;;;6245985;28;20133;-62
2023/10/23 01:32:48;;;;;;;42.15;20.42;;;;;;;;;;6243939;28;20052;-62
2023/10/23 01:35:48;;;;;;;40.05;18.98;;;;;;;;;;6244744;28;20466;-62
2023/10/23 01:38:49;;;;;;;45.30;20.90;;;;;;;;;;6244409;28;20092;-62
2023/10/23 01:41:49;;;;;;;43.95;18.92;;;;;;;;;;6246022;28;20096;-62
2023/10/23 01:44:50;;;;;;;39.58;19.85;;;;;;;;;;6244716;28;20592;-62
2023/10/23 01:47:51;;;;;;;39.28;17.73;;;;;;;;;;6244298;28;20046;-62
2023/10/23 01:50:51;;;;;;;38.58;18.95;;;;;;;;;;6245122;28;20104;-62
2023/10/23 01:53:52;;;;;;;45.67;22.73;;;;;;;;;;6242321;28;20053;-62
2023/10/23 01:56:52;;;;;;;72.97;34.78;;;;;;;;;;6245276;28;20053;-62
2023/10/23 01:59:53;;;;;;;64.93;26.30;;;;;;;;;;6245220;28;20046;-62
2023/10/23 02:02:54;;;;;;;58.20;25.48;;;;;;;;;;6244811;28;20642;-62
2023/10/23 02:05:56;;;;;;;55.77;24.00;;;;;;;;;;6245652;28;20044;-62
2023/10/23 02:08:56;;;;;;;54.55;25.25;;;;;;;;;;6244506;28;20389;-62
2023/10/23 02:11:57;;;;;;;61.53;26.55;;;;;;;;;;6241870;28;20044;-63
2023/10/23 02:14:58;;;;;;;47.28;21.80;;;;;;;;;;6243552;28;20046;-62
2023/10/23 02:17:59;;;;;;;62.13;29.33;;;;;;;;;;6244083;28;20063;-62
2023/10/23 02:20:59;;;;;;;59.20;27.63;;;;;;;;;;6243815;28;20046;-63
2023/10/23 02:24:00;;;;;;;55.55;26.30;;;;;;;;;;6244906;28;20037;-62
2023/10/23 02:27:01;;;;;;;48.33;23.38;;;;;;;;;;6245366;28;20048;-63
2023/10/23 02:30:02;;;;;;;52.35;23.80;;;;;;;;;;6244644;28;20507;-62
2023/10/23 02:33:02;;;;;;;55.30;23.23;;;;;;;;;;6243320;28;20045;-62
2023/10/23 02:36:03;;;;;;;52.58;21.95;;;;;;;;;;6245335;28;20561;-62
2023/10/23 02:39:03;;;;;;;46.97;23.00;;;;;;;;;;6242493;28;20037;-62
2023/10/23 02:42:04;;;;;;;62.20;27.42;;;;;;;;;;6243659;28;20506;-62
2023/10/23 02:45:06;;;;;;;59.95;27.55;;;;;;;;;;6243750;28;20042;-62
2023/10/23 02:48:06;;;;;;;57.03;25.02;;;;;;;;;;6243780;28;20041;-61
2023/10/23 02:51:08;;;;;;;56.25;25.27;;;;;;;;;;6241778;28;20045;-62
2023/10/23 02:54:08;;;;;;;64.43;31.55;;;;;;;;;;6242596;28;20054;-62
2023/10/23 02:57:09;;;;;;;60.67;31.88;;;;;;;;;;6243904;28;20053;-61
2023/10/23 03:00:10;;;;;;;57.60;26.67;;;;;;;;;;6244284;28;20045;-62
2023/10/23 03:03:11;;;;;;;53.90;25.83;;;;;;;;;;6242092;28;20050;-62
2023/10/23 03:06:12;;;;;;;48.33;21.53;;;;;;;;;;6243595;28;20056;-62
2023/10/23 03:09:14;;;;;;;46.05;21.17;;;;;;;;;;6244299;28;20049;-63
2023/10/23 03:12:14;;;;;;;44.35;20.60;;;;;;;;;;6242026;28;20045;-63
2023/10/23 03:15:16;;;;;;;42.47;20.48;;;;;;;;;;6242696;28;20095;-63
2023/10/23 03:18:17;;;;;;;44.58;21.85;;;;;;;;;;6244870;28;20056;-62
2023/10/23 03:21:17;;;;;;;44.38;22.48;;;;;;;;;;6241601;28;20442;-63
2023/10/23 03:24:18;;;;;;;43.13;20.60;;;;;;;;;;6243311;28;20064;-63
2023/10/23 03:27:19;;;;;;;41.72;19.55;;;;;;;;;;6241820;28;20046;-63
2023/10/23 03:30:19;;;;;;;35.47;17.58;;;;;;;;;;6241185;28;20385;-62
2023/10/23 03:33:20;;;;;;;37.58;17.02;;;;;;;;;;6242962;28;20049;-63
2023/10/23 03:36:21;;;;;;;35.95;17.40;;;;;;;;;;6243672;28;20037;-62
2023/10/23 03:39:21;;;;;;;34.08;16.63;;;;;;;;;;6241147;28;20125;-62
2023/10/23 03:42:22;;;;;;;38.80;17.85;;;;;;;;;;6239193;28;20438;-62
2023/10/23 03:45:22;;;;;;;36.53;17.38;;;;;;;;;;6242463;28;20049;-63
2023/10/23 03:48:23;;;;;;;33.90;18.13;;;;;;;;;;6243603;28;20522;-62
2023/10/23 03:51:23;;;;;;;41.38;19.75;;;;;;;;;;6242500;28;20044;-62
2023/10/23 03:54:24;;;;;;;36.63;17.80;;;;;;;;;;6241311;28;20100;-62
2023/10/23 03:57:25;;;;;;;38.40;17.30;;;;;;;;;;6241262;28;20045;-63
2023/10/23 04:00:25;;;;;;;31.20;16.17;;;;;;;;;;6242156;28;20060;-63
2023/10/23 04:03:26;;;;;;;34.45;17.00;;;;;;;;;;6241904;28;20096;-63
2023/10/23 04:06:27;;;;;;;38.47;17.95;;;;;;;;;;6242553;28;20037;-63
2023/10/23 04:09:31;;;;;;;41.28;19.40;;;;;;;;;;6243244;28;20550;-63
2023/10/23 04:12:31;;;;;;;37.47;17.60;;;;;;;;;;6252088;28;20045;-63
2023/10/23 04:15:32;;;;;;;39.30;17.95;;;;;;;;;;6243322;28;20037;-63
2023/10/23 04:18:33;;;;;;;37.22;18.45;;;;;;;;;;6248951;28;20107;-62
2023/10/23 04:21:38;;;;;;;36.15;18.27;;;;;;;;;;6241840;28;20053;-63
2023/10/23 04:24:40;;;;;;;35.67;18.33;;;;;;;;;;6246182;28;20038;-63
2023/10/23 04:27:40;;;;;;;36.40;18.45;;;;;;;;;;6245835;28;20048;-63
2023/10/23 04:30:41;;;;;;;49.45;23.77;;;;;;;;;;6256707;28;20045;-63
2023/10/23 04:33:41;;;;;;;61.20;31.25;;;;;;;;;;6260089;28;20056;-63
2023/10/23 04:36:42;;;;;;;49.08;24.88;;;;;;;;;;6252732;28;20045;-63
2023/10/23 04:39:43;;;;;;;54.95;27.15;;;;;;;;;;6264584;28;20393;-64
2023/10/23 04:42:44;;;;;;;49.97;25.80;;;;;;;;;;6245023;28;20047;-63
2023/10/23 04:45:45;;;;;;;50.38;24.77;;;;;;;;;;6246628;28;20049;-62
2023/10/23 04:48:46;;;;;;;53.15;23.17;;;;;;;;;;6244693;28;20071;-64
2023/10/23 04:51:46;;;;;;;49.55;23.02;;;;;;;;;;6245937;28;20054;-63
2023/10/23 04:54:49;;;;;;;83.78;37.25;;;;;;;;;;6243657;28;20127;-64
2023/10/23 04:57:49;;;;;;;65.38;30.52;;;;;;;;;;6246598;28;20100;-64
2023/10/23 05:00:50;;;;;;;59.85;26.70;;;;;;;;;;6259523;28;20049;-64
2023/10/23 05:03:51;;;;;;;50.90;22.05;;;;;;;;;;6269398;28;20049;-69
2023/10/23 05:06:52;;;;;;;51.85;23.67;;;;;;;;;;6270024;28;20126;-62
2023/10/23 05:09:53;;;;;;;48.45;21.17;;;;;;;;;;6270548;28;20143;-62
2023/10/23 05:12:53;;;;;;;67.18;26.67;;;;;;;;;;6247556;28;20081;-61
2023/10/23 05:16:01;;;;;;;59.58;26.55;;;;;;;;;;6246938;28;20053;-61
2023/10/23 05:19:02;;;;;;;65.90;29.58;;;;;;;;;;6246330;28;20059;-61
2023/10/23 05:22:03;;;;;;;64.00;27.00;;;;;;;;;;6246308;28;20057;-61
2023/10/23 05:25:04;;;;;;;71.82;31.40;;;;;;;;;;6246227;28;20053;-62
2023/10/23 05:28:04;;;;;;;79.25;42.13;;;;;;;;;;6255334;28;20064;-61
2023/10/23 05:31:06;;;;;;;99.47;49.50;;;;;;;;;;6261399;28;20056;-62
2023/10/23 05:34:07;;;;;;;89.50;39.63;;;;;;;;;;6263995;28;20053;-61
2023/10/23 05:37:07;;;;;;;81.85;34.55;;;;;;;;;;6261459;28;20076;-62
2023/10/23 05:40:08;;;;;;;56.08;23.65;;;;;;;;;;6257972;28;20049;-61
2023/10/23 05:43:10;;;;;;;42.72;22.30;;;;;;;;;;6258989;28;20045;-63
2023/10/23 05:46:11;;;;;;;53.17;23.27;;;;;;;;;;6262503;28;20063;-62
2023/10/23 05:49:12;;;;;;;70.15;35.58;;;;;;;;;;6262055;28;20059;-62
2023/10/23 05:52:12;;;;;;;61.40;26.65;;;;;;;;;;6255838;28;20050;-61
2023/10/23 05:55:13;;;;;;;53.75;26.70;;;;;;;;;;6243776;28;20052;-61
2023/10/23 05:58:13;;;;;;;53.42;23.13;;;;;;;;;;6262712;28;20397;-61
2023/10/23 06:01:14;;;;;;;54.97;22.75;;;;;;;;;;6265821;28;20041;-61
2023/10/23 06:04:14;;;;;;;50.13;23.25;;;;;;;;;;6258828;28;20041;-63
2023/10/23 06:07:15;;;;;;;55.13;25.38;;;;;;;;;;6259797;28;20069;-62
2023/10/23 06:10:16;;;;;;;54.90;25.83;;;;;;;;;;6260344;28;20040;-61
2023/10/23 06:13:17;;;;;;;61.40;29.88;;;;;;;;;;6260212;28;20496;-62
2023/10/23 06:16:17;;;;;;;57.35;27.50;;;;;;;;;;6257237;28;20464;-62
2023/10/23 06:19:18;;;;;;;52.78;25.88;;;;;;;;;;6260557;28;20508;-62
2023/10/23 06:22:18;;;;;;;50.72;23.80;;;;;;;;;;6259113;28;20049;-61
2023/10/23 06:25:21;;;;;;;62.30;26.20;;;;;;;;;;6261095;28;20577;-62
2023/10/23 06:28:21;;;;;;;55.53;25.02;;;;;;;;;;6262790;28;20041;-62
2023/10/23 06:31:22;;;;;;;53.90;23.75;;;;;;;;;;6266296;28;20110;-62
2023/10/23 06:34:23;;;;;;;58.00;28.83;;;;;;;;;;6253595;28;20120;-61
2023/10/23 06:37:23;;;;;;;53.53;27.70;;;;;;;;;;6244346;28;20045;-62
2023/10/23 06:40:24;;;;;;;50.92;25.60;;;;;;;;;;6243960;28;20033;-61
2023/10/23 06:43:25;;;;;;;51.67;24.45;;;;;;;;;;6243223;28;20104;-62
2023/10/23 06:46:25;;;;;;;46.28;22.70;;;;;;;;;;6243888;28;20046;-60
2023/10/23 06:49:26;;;;;;;39.30;22.02;;;;;;;;;;6242298;28;20049;-62
2023/10/23 06:52:27;;;;;;;39.30;21.88;;;;;;;;;;6242220;28;20049;-61
2023/10/23 06:55:27;;;;;;;43.00;21.75;;;;;;;;;;6243888;28;20090;-61
2023/10/23 06:58:28;;;;;;;43.53;21.50;;;;;;;;;;6243583;28;20049;-62
2023/10/23 07:01:29;;;;;;;37.75;19.67;;;;;;;;;;6243040;28;20157;-62
2023/10/23 07:04:29;;;;;;;39.42;21.38;;;;;;;;;;6242770;28;20488;-62
2023/10/23 07:07:30;;;;;;;39.55;23.20;;;;;;;;;;6243705;28;20073;-63
2023/10/23 07:10:33;;;;;;;36.92;20.08;;;;;;;;;;6243096;28;20037;-61
2023/10/23 07:13:33;;;;;;;34.42;16.90;;;;;;;;;;6242392;28;20056;-60
2023/10/23 07:16:34;;;;;;;43.40;18.75;;;;;;;;;;6243154;28;20046;-61
2023/10/23 07:19:34;;;;;;;39.17;19.90;;;;;;;;;;6243610;28;20045;-61
2023/10/23 07:22:36;;;;;;;25.92;12.85;;;;;;;;;;6242878;28;20054;-62
2023/10/23 07:25:37;;;;;;;27.73;11.63;;;;;;;;;;6244011;28;20049;-62
2023/10/23 07:28:40;;;;;;;31.02;17.88;;;;;;;;;;6241431;28;20534;-62
2023/10/23 07:31:41;;;;;;;27.67;13.45;;;;;;;;;;6244583;28;20606;-62
2023/10/23 07:34:41;;;;;;;30.05;12.25;;;;;;;;;;6243079;28;20100;-62
2023/10/23 07:37:42;;;;;;;32.25;13.57;;;;;;;;;;6242371;28;20130;-62
2023/10/23 07:40:43;;;;;;;21.65;10.50;;;;;;;;;;6240589;28;20060;-62
2023/10/23 07:43:44;;;;;;;22.00;10.13;;;;;;;;;;6241030;28;20513;-62
2023/10/23 07:46:46;;;;;;;21.92;10.55;;;;;;;;;;6242808;28;20071;-61
2023/10/23 07:49:46;;;;;;;20.40;10.25;;;;;;;;;;6242804;28;20126;-62
2023/10/23 07:52:47;;;;;;;27.45;11.32;;;;;;;;;;6241638;28;20801;-62
2023/10/23 07:55:47;;;;;;;27.48;11.73;;;;;;;;;;6243130;28;20038;-61
2023/10/23 07:58:48;;;;;;;21.23;9.98;;;;;;;;;;6243478;28;20522;-61
2023/10/23 08:01:48;;;;;;;29.08;11.30;;;;;;;;;;6242917;28;20049;-62
2023/10/23 08:04:49;;;;;;;24.17;9.43;;;;;;;;;;6242363;28;20460;-62
2023/10/23 08:07:50;;;;;;;26.33;13.32;;;;;;;;;;6244519;28;20049;-63
2023/10/23 08:10:50;;;;;;;24.35;11.13;;;;;;;;;;6242227;28;20127;-63
2023/10/23 08:13:51;;;;;;;27.75;11.80;;;;;;;;;;6242347;28;20471;-62
2023/10/23 08:16:52;;;;;;;23.13;10.10;;;;;;;;;;6243337;28;20053;-62
2023/10/23 08:19:52;;;;;;;31.20;12.00;;;;;;;;;;6243104;28;20084;-62
2023/10/23 08:22:53;;;;;;;25.08;11.50;;;;;;;;;;6241391;28;20496;-61
2023/10/23 08:25:53;;;;;;;27.95;11.68;;;;;;;;;;6242924;28;20053;-62
2023/10/23 08:28:54;;;;;;;28.23;14.45;;;;;;;;;;6242747;28;20049;-62
2023/10/23 08:31:55;;;;;;;33.22;17.35;;;;;;;;;;6241908;28;20053;-62
2023/10/23 08:34:55;;;;;;;25.40;12.98;;;;;;;;;;6243092;28;20056;-63
2023/10/23 08:37:56;;;;;;;26.63;12.35;;;;;;;;;;6241974;28;20485;-63
2023/10/23 08:40:57;;;;;;;22.40;9.95;;;;;;;;;;6241971;28;20052;-62
2023/10/23 08:43:58;;;;;;;26.17;10.38;;;;;;;;;;6239465;28;20112;-63
2023/10/23 08:46:59;;;;;;;23.10;11.35;;;;;;;;;;6241294;28;20048;-62
2023/10/23 08:50:02;;;;;;;25.20;9.50;;;;;;;;;;6242618;28;20117;-63
2023/10/23 08:53:09;;;;;;;22.67;7.90;;;;;;;;;;6240501;28;20100;-62
2023/10/23 08:56:10;;;;;;;22.70;8.55;;;;;;;;;;6241401;28;20059;-61
2023/10/23 08:59:13;;;;;;;23.10;10.18;;;;;;;;;;6243084;28;20120;-62
2023/10/23 09:02:15;;;;;;;23.60;11.52;;;;;;;;;;6240009;28;20140;-62
2023/10/23 09:05:15;;;;;;;27.90;11.75;;;;;;;;;;6241435;28;20048;-62
2023/10/23 09:08:18;;;;;;;20.27;9.05;;;;;;;;;;6245184;28;20516;-63
2023/10/23 09:11:19;;;;;;;28.70;13.70;;;;;;;;;;6240305;28;20555;-63
2023/10/23 09:14:27;;;;;;;24.33;11.43;;;;;;;;;;6239876;28;20056;-63
2023/10/23 09:17:28;;;;;;;26.70;10.30;;;;;;;;;;6242216;28;20050;-63
2023/10/23 09:20:29;;;;;;;31.85;12.52;;;;;;;;;;6240660;28;20514;-63
2023/10/23 09:23:30;;;;;;;40.45;17.95;;;;;;;;;;6241617;28;20045;-62
2023/10/23 09:26:31;;;;;;;22.70;10.20;;;;;;;;;;6241895;28;20052;-64
2023/10/23 09:29:33;;;;;;;17.17;7.18;;;;;;;;;;6246820;28;20057;-62
2023/10/23 09:32:35;;;;;;;18.25;7.90;;;;;;;;;;6245382;28;20140;-63
2023/10/23 09:35:36;;;;;;;17.98;8.43;;;;;;;;;;6245769;28;20503;-63
2023/10/23 09:38:39;;;;;;;17.10;7.70;;;;;;;;;;6246159;28;20051;-62
2023/10/23 09:41:40;;;;;;;21.23;6.78;;;;;;;;;;6244290;28;20249;-62
2023/10/23 09:44:43;;;;;;;19.17;6.33;;;;;;;;;;6245015;28;20523;-62
2023/10/23 09:47:45;;;;;;;20.80;7.30;;;;;;;;;;6245290;28;20048;-63
2023/10/23 09:50:48;;;;;;;19.80;6.88;;;;;;;;;;6245983;28;20145;-62
2023/10/23 09:53:49;;;;;;;17.70;6.70;;;;;;;;;;6245490;28;20049;-62
2023/10/23 09:56:52;;;;;;;18.67;7.18;;;;;;;;;;6244376;28;20424;-63
2023/10/23 10:00:00;;;;;;;21.10;7.22;;;;;;;;;;6246965;28;20045;-62
2023/10/23 10:03:05;;;;;;;20.67;6.57;;;;;;;;;;6244623;28;20079;-63
2023/10/23 10:06:13;;;;;;;18.30;6.40;;;;;;;;;;6243538;28;20049;-62
2023/10/23 10:09:15;;;;;;;16.05;6.47;;;;;;;;;;6245532;28;20442;-62
2023/10/23 10:12:18;;;;;;;18.85;8.55;;;;;;;;;;6244963;28;20504;-62
2023/10/23 10:15:21;;;;;;;18.08;7.03;;;;;;;;;;6243286;28;20500;-62
2023/10/23 10:18:22;;;;;;;18.23;6.65;;;;;;;;;;6246034;28;20107;-62
2023/10/23 10:21:23;;;;;;;19.23;6.15;;;;;;;;;;6246668;28;20505;-63
2023/10/23 10:24:25;;;;;;;15.10;6.18;;;;;;;;;;6244043;28;20050;-62
2023/10/23 10:27:26;;;;;;;19.75;6.78;;;;;;;;;;6244178;28;20496;-62
2023/10/23 10:30:46;;;;;;;13.48;5.82;;;;;;;;;;6243208;28;20091;-62
2023/10/23 10:33:47;;;;;;;18.08;6.40;;;;;;;;;;6245697;28;20072;-62
2023/10/23 10:36:48;;;;;;;16.33;6.63;;;;;;;;;;6242405;28;20107;-62
2023/10/23 10:39:52;;;;;;;18.40;5.57;;;;;;;;;;6241411;28;20045;-62
2023/10/23 10:42:55;;;;;;;15.65;5.85;;;;;;;;;;6242667;28;20061;-63
2023/10/23 10:45:56;;;;;;;19.48;5.40;;;;;;;;;;6243168;28;20140;-62
2023/10/23 10:48:56;;;;;;;16.35;5.05;;;;;;;;;;6244827;28;20556;-63
2023/10/23 10:51:57;;;;;;;16.73;5.38;;;;;;;;;;6249072;28;20049;-62
2023/10/23 10:55:01;;;;;;;12.52;5.05;;;;;;;;;;6242222;28;20056;-62
2023/10/23 10:58:03;;;;;;;12.63;4.80;;;;;;;;;;6241816;28;20127;-62
2023/10/23 11:01:03;;;;;;;;;;;;;;;;;;6243241;28;20057;-62
2023/10/23 11:04:05;;;;;;;12.95;4.10;;;;;;;;;;6244006;28;20314;-62
2023/10/23 11:07:06;;;;;;;11.15;4.20;;;;;;;;;;6242925;28;20049;-62
2023/10/23 11:10:08;;;;;;;15.80;4.60;;;;;;;;;;6243289;28;20285;-62
2023/10/23 11:13:13;;;;;;;14.52;5.38;;;;;;;;;;6243536;28;20063;-62
2023/10/23 11:16:14;;;;;;;12.48;4.45;;;;;;;;;;6240202;28;20836;-62
2023/10/23 11:19:15;;;;;;;11.45;5.07;;;;;;;;;;6243365;28;20038;-62
2023/10/23 11:22:21;;;;;;;21.23;5.30;;;;;;;;;;6243577;28;20049;-62
2023/10/23 11:25:22;;;;;;;16.83;5.10;;;;;;;;;;6242938;28;20504;-62
2023/10/23 11:28:24;;;;;;;14.68;4.65;;;;;;;;;;6243094;28;20139;-63
2023/10/23 11:31:25;;;;;;;15.13;4.73;;;;;;;;;;6243762;28;20048;-63
2023/10/23 11:34:26;;;;;;;14.98;4.40;;;;;;;;;;6245046;28;20061;-63
2023/10/23 11:37:26;;;;;;;11.90;4.53;;;;;;;;;;6242297;28;20491;-61
2023/10/23 11:40:27;;;;;;;14.60;4.28;;;;;;;;;;6241061;28;20551;-63
2023/10/23 11:43:28;;;;;;;16.40;4.03;;;;;;;;;;6241528;28;20080;-63
2023/10/23 11:46:29;;;;;;;10.77;3.47;;;;;;;;;;6240349;28;20063;-63
2023/10/23 11:49:30;;;;;;;14.77;3.90;;;;;;;;;;6240450;28;20364;-62
2023/10/23 11:52:31;;;;;;;11.73;4.20;;;;;;;;;;6243436;28;20044;-63
2023/10/23 11:55:32;;;;;;;17.15;4.28;;;;;;;;;;6242809;28;20049;-63
2023/10/23 11:58:33;;;;;;;;;;;;;;;;;;6241981;28;20053;-63
2023/10/23 12:01:33;;;;;;;14.15;4.18;;;;;;;;;;6241975;28;19932;-63
2023/10/23 12:04:35;;;;;;;9.02;3.47;;;;;;;;;;6243003;28;20099;-64
2023/10/23 12:07:36;;;;;;;13.80;3.53;;;;;;;;;;6240884;28;20053;-63
2023/10/23 12:10:38;;;;;;;15.60;4.70;;;;;;;;;;6240431;28;20065;-62
2023/10/23 12:13:39;;;;;;;15.27;3.83;;;;;;;;;;6241934;28;20289;-62
2023/10/23 12:16:40;;;;;;;13.10;3.45;;;;;;;;;;6243582;28;20049;-62
2023/10/23 12:19:40;;;;;;;14.68;3.72;;;;;;;;;;6242381;28;20500;-62
2023/10/23 12:22:46;;;;;;;20.92;3.88;;;;;;;;;;6242255;28;20630;-62
2023/10/23 12:25:46;;;;;;;15.80;3.60;;;;;;;;;;6239705;28;20046;-62
2023/10/23 12:28:47;;;;;;;11.98;3.28;;;;;;;;;;6239957;28;20465;-62
2023/10/23 12:31:47;;;;;;;10.52;3.10;;;;;;;;;;6256974;28;20045;-62
2023/10/23 12:34:48;;;;;;;15.77;3.50;;;;;;;;;;6242882;28;20091;-62
2023/10/23 12:37:49;;;;;;;13.23;3.28;;;;;;;;;;6241540;28;20049;-62
2023/10/23 12:40:49;;;;;;;10.80;3.33;;;;;;;;;;6242085;28;20508;-62
2023/10/23 12:43:50;;;;;;;16.85;3.75;;;;;;;;;;6241573;28;20057;-63
2023/10/23 12:46:51;;;;;;;10.75;3.67;;;;;;;;;;6241206;28;20053;-63
2023/10/23 12:49:55;;;;;;;11.75;3.58;;;;;;;;;;6238628;28;20068;-63
2023/10/23 12:52:57;;;;;;;13.18;3.47;;;;;;;;;;6247984;28;20464;-63
2023/10/23 12:55:57;;;;;;;9.45;3.53;;;;;;;;;;6251324;28;20564;-63
2023/10/23 12:58:58;;;;;;;9.50;3.45;;;;;;;;;;6248253;28;20072;-63
2023/10/23 13:01:59;;;;;;;11.32;3.40;;;;;;;;;;6251947;28;20052;-62
2023/10/23 13:04:59;;;;;;;15.60;4.10;;;;;;;;;;6257466;28;20049;-62
2023/10/23 13:08:00;;;;;;;13.73;3.78;;;;;;;;;;6256829;28;20041;-62
2023/10/23 13:11:01;;;;;;;16.15;3.90;;;;;;;;;;6257249;28;20407;-62
2023/10/23 13:14:02;;;;;;;11.60;3.63;;;;;;;;;;6256677;28;20045;-62
2023/10/23 13:17:02;;;;;;;15.60;3.72;;;;;;;;;;6255570;28;20045;-62
2023/10/23 13:20:06;;;;;;;13.13;3.97;;;;;;;;;;6257329;28;20052;-62
2023/10/23 13:23:07;;;;;;;15.68;3.72;;;;;;;;;;6254399;28;20376;-62
2023/10/23 13:26:07;;;;;;;10.88;3.70;;;;;;;;;;6257101;28;20052;-62
2023/10/23 13:29:08;;;;;;;13.35;3.78;;;;;;;;;;6256666;28;20067;-63
2023/10/23 13:32:11;;;;;;;11.20;3.65;;;;;;;;;;6255419;28;20052;-62
2023/10/23 13:35:14;;;;;;;14.40;4.00;;;;;;;;;;6256182;28;20072;-63
2023/10/23 13:38:15;;;;;;;10.10;3.72;;;;;;;;;;6256094;28;20135;-62
2023/10/23 13:41:15;;;;;;;14.35;4.13;;;;;;;;;;6255134;28;20123;-63
2023/10/23 13:44:16;;;;;;;9.60;3.28;;;;;;;;;;6255957;28;20464;-62
2023/10/23 13:47:17;;;;;;;13.77;4.18;;;;;;;;;;6255952;28;20537;-63
2023/10/23 13:50:17;;;;;;;11.85;3.80;;;;;;;;;;6255928;28;21023;-63
2023/10/23 13:53:20;;;;;;;14.73;3.67;;;;;;;;;;6253355;28;20053;-63
2023/10/23 13:56:21;;;;;;;13.00;4.47;;;;;;;;;;6255292;28;20507;-62
2023/10/23 13:59:21;;;;;;;11.68;3.10;;;;;;;;;;6255314;28;20091;-62
2023/10/23 14:02:22;;;;;;;18.00;3.83;;;;;;;;;;6251484;28;20487;-63
2023/10/23 14:05:23;;;;;;;13.68;4.53;;;;;;;;;;6256642;28;20491;-63
2023/10/23 14:08:23;;;;;;;16.15;4.13;;;;;;;;;;6253041;28;20067;-63
2023/10/23 14:11:24;;;;;;;11.52;3.92;;;;;;;;;;6255627;28;20500;-63
2023/10/23 14:14:24;;;;;;;12.40;3.78;;;;;;;;;;6255821;28;20053;-63
2023/10/23 14:17:25;;;;;;;10.80;3.75;;;;;;;;;;6252580;28;20135;-64
2023/10/23 14:20:26;;;;;;;15.38;4.05;;;;;;;;;;6253920;28;20056;-63
2023/10/23 14:23:26;;;;;;;16.63;4.18;;;;;;;;;;6253977;28;21117;-63
2023/10/23 14:26:27;;;;;;;13.60;4.30;;;;;;;;;;6256422;28;20049;-63
2023/10/23 14:29:28;;;;;;;12.68;3.90;;;;;;;;;;6256015;28;20049;-63
2023/10/23 14:32:28;;;;;;;17.17;4.03;;;;;;;;;;6252138;28;20053;-63
2023/10/23 14:35:31;;;;;;;17.30;4.75;;;;;;;;;;6254936;28;20576;-64
2023/10/23 14:38:31;;;;;;;15.68;3.80;;;;;;;;;;6252905;28;20514;-63
2023/10/23 14:41:33;;;;;;;10.65;4.05;;;;;;;;;;6252061;28;20065;-63
2023/10/23 14:44:34;;;;;;;14.33;4.53;;;;;;;;;;6255979;28;20062;-64
2023/10/23 14:47:36;;;;;;;17.33;4.45;;;;;;;;;;6254528;28;20074;-63
2023/10/23 14:50:37;;;;;;;;;;;;;;;;;;6254209;28;20060;-63
2023/10/23 14:53:38;;;;;;;14.48;4.40;;;;;;;;;;6251578;28;19924;-62
2023/10/23 14:56:38;;;;;;;17.55;4.55;;;;;;;;;;6253305;28;20444;-62
2023/10/23 14:59:39;;;;;;;12.57;4.10;;;;;;;;;;6253557;28;20156;-62
2023/10/23 15:02:40;;;;;;;14.03;4.33;;;;;;;;;;6252875;28;20049;-62
2023/10/23 15:05:41;;;;;;;17.25;5.45;;;;;;;;;;6253516;28;20148;-62
2023/10/23 15:08:45;;;;;;;16.42;5.35;;;;;;;;;;6252485;28;20053;-62
2023/10/23 15:11:45;;;;;;;12.40;4.68;;;;;;;;;;6254373;28;20041;-63
2023/10/23 15:14:47;;;;;;;15.85;4.70;;;;;;;;;;6254300;28;20052;-62
2023/10/23 15:17:50;;;;;;;24.40;13.55;;;;;;;;;;6254258;28;20080;-63
2023/10/23 15:20:59;;;;;;;18.73;9.38;;;;;;;;;;6253536;28;20060;-62
2023/10/23 15:24:00;;;;;;;21.27;7.95;;;;;;;;;;6252103;28;20118;-63
2023/10/23 15:27:01;;;;;;;24.60;9.00;;;;;;;;;;6251552;28;20057;-62
2023/10/23 15:30:03;;;;;;;19.63;7.25;;;;;;;;;;6253023;28;20049;-63
2023/10/23 15:33:04;;;;;;;19.58;8.43;;;;;;;;;;6254554;28;20106;-62
2023/10/23 15:36:05;;;;;;;26.90;11.13;;;;;;;;;;6254677;28;20223;-65
2023/10/23 15:39:08;;;;;;;21.80;8.57;;;;;;;;;;6253947;28;20048;-65
2023/10/23 15:42:08;;;;;;;14.57;4.63;;;;;;;;;;6251894;28;20520;-64
2023/10/23 15:45:09;;;;;;;18.65;6.05;;;;;;;;;;6255579;28;20061;-64
2023/10/23 15:48:13;;;;;;;27.92;10.73;;;;;;;;;;6250974;28;20642;-63
2023/10/23 15:51:17;;;;;;;54.67;15.43;;;;;;;;;;6252223;28;20052;-62
2023/10/23 15:54:17;;;;;;;34.50;11.75;;;;;;;;;;6253442;28;20638;-62
2023/10/23 15:57:18;;;;;;;38.45;12.52;;;;;;;;;;6251442;28;20415;-63
2023/10/23 16:00:19;;;;;;;33.60;13.07;;;;;;;;;;6254168;28;20475;-62
2023/10/23 16:03:20;;;;;;;25.67;9.02;;;;;;;;;;6250040;28;20045;-62
2023/10/23 16:06:21;;;;;;;35.38;12.65;;;;;;;;;;6234059;28;20044;-63
2023/10/23 16:09:22;;;;;;;49.97;18.02;;;;;;;;;;6251872;28;20113;-63
2023/10/23 16:12:23;;;;;;;43.60;16.05;;;;;;;;;;6249451;28;20053;-63
2023/10/23 16:15:23;;;;;;;32.65;13.63;;;;;;;;;;6252980;28;20049;-62
2023/10/23 16:18:25;;;;;;;36.80;13.60;;;;;;;;;;6251706;28;20076;-62
2023/10/23 16:21:25;;;;;;;38.38;15.05;;;;;;;;;;6251759;28;20048;-63
2023/10/23 16:24:26;;;;;;;37.97;15.40;;;;;;;;;;6251169;28;20144;-62
2023/10/23 16:27:27;;;;;;;44.70;16.45;;;;;;;;;;6252607;28;20071;-63
2023/10/23 16:30:27;;;;;;;43.88;16.73;;;;;;;;;;6252175;28;20403;-62
2023/10/23 16:33:28;;;;;;;41.55;14.98;;;;;;;;;;6250538;28;20122;-62
2023/10/23 16:36:30;;;;;;;46.08;16.55;;;;;;;;;;6254640;28;21762;-63
2023/10/23 16:39:31;;;;;;;43.42;17.60;;;;;;;;;;6259121;28;20495;-63
2023/10/23 16:42:32;;;;;;;41.92;16.33;;;;;;;;;;6258252;28;20049;-63
2023/10/23 16:45:32;;;;;;;37.90;15.45;;;;;;;;;;6257657;28;20049;-63
2023/10/23 16:48:33;;;;;;;45.15;15.82;;;;;;;;;;6261310;28;20076;-63
2023/10/23 16:51:34;;;;;;;29.77;11.65;;;;;;;;;;6260049;28;21166;-62
2023/10/23 16:54:34;;;;;;;39.05;14.65;;;;;;;;;;6260440;28;20131;-62
2023/10/23 16:57:35;;;;;;;34.70;13.48;;;;;;;;;;6259175;28;20496;-62
2023/10/23 17:00:37;;;;;;;38.35;16.65;;;;;;;;;;6259642;28;20882;-62
2023/10/23 17:03:39;;;;;;;66.63;28.17;;;;;;;;;;6259141;28;20055;-62
2023/10/23 17:06:40;;;;;;;61.10;24.33;;;;;;;;;;6258645;28;20868;-66
2023/10/23 17:09:41;;;;;;;54.15;20.70;;;;;;;;;;6258666;28;20056;-64
2023/10/23 17:12:41;;;;;;;52.10;20.90;;;;;;;;;;6258011;28;20042;-63
2023/10/23 17:15:43;;;;;;;50.03;19.00;;;;;;;;;;6259338;28;20056;-63
2023/10/23 17:18:43;;;;;;;115.80;38.05;;;;;;;;;;6259307;28;20543;-63
2023/10/23 17:21:44;;;;;;;128.27;42.97;;;;;;;;;;6254549;28;20049;-63
2023/10/23 17:24:45;;;;;;;112.30;41.53;;;;;;;;;;6258517;28;20059;-63
2023/10/23 17:27:48;;;;;;;116.05;44.72;;;;;;;;;;6259521;28;20044;-63
2023/10/23 17:30:56;;;;;;;116.03;45.55;;;;;;;;;;6259153;28;20521;-62
2023/10/23 17:33:56;;;;;;;107.82;42.53;;;;;;;;;;6258096;28;20057;-62
2023/10/23 17:36:57;;;;;;;110.45;41.22;;;;;;;;;;6257240;28;20415;-62
2023/10/23 17:39:59;;;;;;;100.20;37.42;;;;;;;;;;6258549;28;20049;-61
2023/10/23 17:43:00;;;;;;;99.75;40.17;;;;;;;;;;6253827;28;20057;-62